Time,TemperatureF,DewpointF,PressureIn,WindDirection,WindDirectionDegrees,WindSpeedMPH,WindSpeedGustMPH,Humidity,HourlyPrecipIn,Conditions,Clouds,dailyrainin,SolarRadiationWatts/m^2,SoftwareType,DateUTC
2013-03-14 00:03:00,51.5,48.4,30.08,SW,235,3.2,5.0,89,0.00,OVC,,0.00,0.0,WeatherDisplay:10.37,2013-03-14 07:03:00,
2013-03-14 00:08:00,51.5,48.7,30.08,WSW,241,2.7,4.6,90,0.00,OVC,,0.00,0.0,WeatherDisplay:10.37,2013-03-14 07:08:00,
2013-03-14 00:13:00,51.4,48.6,30.08,SW,235,2.6,5.8,90,0.00,OVC,,0.00,0.0,WeatherDisplay:10.37,2013-03-14 07:13:00,
2013-03-14 00:18:00,51.3,48.2,30.08,SW,217,5.6,5.6,89,0.00,OVC,,0.00,0.0,WeatherDisplay:10.37,2013-03-14 07:18:00,
2013-03-14 00:23:00,51.2,48.4,30.08,SW,226,4.6,6.9,90,0.00,OVC,,0.00,0.0,WeatherDisplay:10.37,2013-03-14 07:23:00,
2013-03-14 00:28:00,51.1,48.3,30.08,SW,233,3.3,4.6,90,0.00,OVC,,0.00,0.0,WeatherDisplay:10.37,2013-03-14 07:28:00,
2013-03-14 00:33:00,51.0,48.2,30.09,SW,233,2.2,3.5,90,0.00,OVC,,0.00,0.0,WeatherDisplay:10.37,2013-03-14 07:33:00,
2013-03-14 00:38:00,51.0,48.2,30.09,SW,232,2.3,4.6,90,0.00,OVC,,0.00,0.0,WeatherDisplay:10.37,2013-03-14 07:38:00,
2013-03-14 00:43:00,50.9,48.1,30.09,SW,232,0.0,0.0,90,0.00,OVC,,0.00,0.0,WeatherDisplay:10.37,2013-03-14 07:43:00,
2013-03-14 00:48:00,50.9,48.1,30.09,SW,232,0.5,1.0,90,0.00,OVC,,0.00,0.0,WeatherDisplay:10.37,2013-03-14 07:48:00,
2013-03-14 00:53:00,51.0,48.2,30.09,WSW,242,1.8,2.3,90,0.00,OVC,,0.00,0.0,WeatherDisplay:10.37,2013-03-14 07:53:00,
2013-03-14 00:58:00,51.0,48.2,30.09,WSW,242,1.5,3.5,90,0.00,OVC,,0.00,0.0,WeatherDisplay:10.37,2013-03-14 07:58:00,
2013-03-14 01:03:00,51.0,48.2,30.09,WSW,239,2.6,4.6,90,0.00,OVC,,0.00,0.0,WeatherDisplay:10.37,2013-03-14 08:03:00,
2013-03-14 01:08:00,50.9,48.1,30.09,WSW,238,1.3,3.0,90,0.00,OVC,,0.00,0.0,WeatherDisplay:10.37,2013-03-14 08:08:00,
2013-03-14 01:13:00,50.8,48.0,30.08,WSW,237,2.5,5.0,90,0.00,OVC,,0.00,0.0,WeatherDisplay:10.37,2013-03-14 08:13:00,
2013-03-14 01:18:00,50.7,47.6,30.09,WSW,237,2.1,3.5,89,0.00,OVC,,0.00,0.0,WeatherDisplay:10.37,2013-03-14 08:18:00,
2013-03-14 01:23:00,50.6,47.8,30.09,SW,228,3.9,4.6,90,0.00,OVC,,0.00,0.0,WeatherDisplay:10.37,2013-03-14 08:23:00,
2013-03-14 01:28:00,50.5,47.7,30.09,SSW,198,2.4,5.8,90,0.00,OVC,,0.00,0.0,WeatherDisplay:10.37,2013-03-14 08:28:00,
2013-03-14 01:33:00,50.4,47.6,30.09,SW,222,3.8,6.9,90,0.00,OVC,,0.00,0.0,WeatherDisplay:10.37,2013-03-14 08:33:00,
2013-03-14 01:38:00,50.3,47.5,30.09,SW,221,2.3,5.8,90,0.00,OVC,,0.00,0.0,WeatherDisplay:10.37,2013-03-14 08:38:00,
2013-03-14 01:43:00,50.1,47.3,30.08,SW,229,2.7,5.8,90,0.00,OVC,,0.00,0.0,WeatherDisplay:10.37,2013-03-14 08:43:00,
2013-03-14 01:48:00,50.0,47.5,30.09,SW,220,4.0,9.0,91,0.00,OVC,,0.00,0.0,WeatherDisplay:10.37,2013-03-14 08:48:00,
2013-03-14 01:54:00,49.9,47.4,30.09,WSW,241,3.0,4.6,91,0.00,OVC,,0.00,0.0,WeatherDisplay:10.37,2013-03-14 08:54:00,
2013-03-14 01:59:00,49.8,47.3,30.09,SW,226,2.9,4.6,91,0.00,OVC,,0.00,0.0,WeatherDisplay:10.37,2013-03-14 08:59:00,
2013-03-14 02:04:00,49.7,47.2,30.09,SW,232,2.9,3.5,91,0.00,OVC,,0.00,0.0,WeatherDisplay:10.37,2013-03-14 09:04:00,
2013-03-14 02:09:00,49.6,47.1,30.09,WSW,243,3.2,4.6,91,0.00,OVC,,0.00,0.0,WeatherDisplay:10.37,2013-03-14 09:09:00,
2013-03-14 02:14:00,49.6,47.1,30.09,SW,235,1.8,3.5,91,0.00,OVC,,0.00,0.0,WeatherDisplay:10.37,2013-03-14 09:14:00,
2013-03-14 02:19:00,49.5,47.0,30.09,SW,225,3.1,4.6,91,0.00,OVC,,0.00,0.0,WeatherDisplay:10.37,2013-03-14 09:19:00,
2013-03-14 02:24:00,49.5,47.3,30.09,SW,217,3.7,4.6,92,0.00,OVC,,0.00,0.0,WeatherDisplay:10.37,2013-03-14 09:24:00,
2013-03-14 02:29:00,49.4,47.2,30.09,SW,217,2.0,3.5,92,0.00,OVC,,0.00,0.0,WeatherDisplay:10.37,2013-03-14 09:29:00,
2013-03-14 02:34:00,49.4,47.2,30.09,SW,217,3.2,4.6,92,0.00,OVC,,0.00,0.0,WeatherDisplay:10.37,2013-03-14 09:34:00,
2013-03-14 02:39:00,49.4,47.2,30.09,SW,217,3.6,4.6,92,0.00,OVC,,0.00,0.0,WeatherDisplay:10.37,2013-03-14 09:39:00,
2013-03-14 02:44:00,49.4,47.2,30.09,SW,216,3.2,4.6,92,0.00,OVC,,0.00,0.0,WeatherDisplay:10.37,2013-03-14 09:44:00,
2013-03-14 02:49:00,49.3,47.1,30.09,SSW,194,3.1,4.6,92,0.00,OVC,,0.00,0.0,WeatherDisplay:10.37,2013-03-14 09:49:00,
2013-03-14 02:54:00,49.3,47.1,30.09,SSW,194,1.4,3.5,92,0.00,OVC,,0.00,0.0,WeatherDisplay:10.37,2013-03-14 09:54:00,
2013-03-14 02:59:00,49.2,47.0,30.09,SSW,194,2.2,3.5,92,0.00,OVC,,0.00,0.0,WeatherDisplay:10.37,2013-03-14 09:59:00,
2013-03-14 03:04:00,49.2,47.0,30.09,SSW,194,3.1,5.0,92,0.00,OVC,,0.00,0.0,WeatherDisplay:10.37,2013-03-14 10:04:00,
2013-03-14 03:09:00,49.2,47.0,30.09,SSW,196,2.9,3.5,92,0.00,OVC,,0.00,0.0,WeatherDisplay:10.37,2013-03-14 10:09:00,
2013-03-14 03:14:00,49.1,46.9,30.09,SSW,206,3.7,4.6,92,0.00,OVC,,0.00,0.0,WeatherDisplay:10.37,2013-03-14 10:14:00,
2013-03-14 03:19:00,49.0,46.8,30.09,SSW,197,4.2,5.8,92,0.00,OVC,,0.00,0.0,WeatherDisplay:10.37,2013-03-14 10:19:00,
2013-03-14 03:24:00,48.9,46.7,30.09,SSW,201,2.6,3.5,92,0.00,OVC,,0.00,0.0,WeatherDisplay:10.37,2013-03-14 10:24:00,
2013-03-14 03:29:00,48.9,47.0,30.09,SSW,201,1.4,3.5,93,0.00,OVC,,0.00,0.0,WeatherDisplay:10.37,2013-03-14 10:29:00,
2013-03-14 03:34:00,48.9,47.0,30.09,WSW,241,2.2,6.0,93,0.00,OVC,,0.00,0.0,WeatherDisplay:10.37,2013-03-14 10:34:00,
2013-03-14 03:39:00,48.8,46.9,30.09,SW,235,3.5,8.1,93,0.00,OVC,,0.00,0.0,WeatherDisplay:10.37,2013-03-14 10:39:00,
2013-03-14 03:44:00,48.8,46.9,30.08,West,259,3.9,6.9,93,0.00,OVC,,0.00,0.0,WeatherDisplay:10.37,2013-03-14 10:44:00,
2013-03-14 03:49:00,48.7,46.8,30.08,SW,236,5.2,9.2,93,0.00,OVC,,0.00,0.0,WeatherDisplay:10.37,2013-03-14 10:49:00,
2013-03-14 03:54:00,48.6,46.7,30.08,SW,221,2.5,3.5,93,0.00,OVC,,0.00,0.0,WeatherDisplay:10.37,2013-03-14 10:54:00,
2013-03-14 03:59:00,48.5,46.6,30.08,SW,232,4.2,6.0,93,0.00,OVC,,0.00,0.0,WeatherDisplay:10.37,2013-03-14 10:59:00,
2013-03-14 04:04:00,48.5,46.6,30.08,WSW,245,0.8,2.3,93,0.00,OVC,,0.00,0.0,WeatherDisplay:10.37,2013-03-14 11:04:00,
2013-03-14 04:09:00,48.6,46.7,30.08,WSW,247,3.3,4.6,93,0.00,OVC,,0.00,0.0,WeatherDisplay:10.37,2013-03-14 11:09:00,
2013-03-14 04:14:00,48.6,46.7,30.08,WSW,247,2.4,4.6,93,0.00,OVC,,0.00,0.0,WeatherDisplay:10.37,2013-03-14 11:14:00,
2013-03-14 04:19:00,48.6,46.7,30.07,WSW,247,1.3,4.6,93,0.00,OVC,,0.00,0.0,WeatherDisplay:10.37,2013-03-14 11:19:00,
2013-03-14 04:24:00,48.6,46.7,30.07,WSW,247,1.1,3.5,93,0.00,OVC,,0.00,0.0,WeatherDisplay:10.37,2013-03-14 11:24:00,
2013-03-14 04:29:00,48.5,46.6,30.07,WSW,247,2.8,3.5,93,0.00,OVC,,0.00,0.0,WeatherDisplay:10.37,2013-03-14 11:29:00,
2013-03-14 04:34:00,48.5,46.6,30.08,WSW,247,0.8,2.3,93,0.00,OVC,,0.00,0.0,WeatherDisplay:10.37,2013-03-14 11:34:00,
2013-03-14 04:39:00,48.5,46.6,30.08,WSW,240,1.7,4.6,93,0.00,OVC,,0.00,0.0,WeatherDisplay:10.37,2013-03-14 11:39:00,
2013-03-14 04:44:00,48.4,46.5,30.08,WSW,240,1.4,3.5,93,0.00,OVC,,0.00,0.0,WeatherDisplay:10.37,2013-03-14 11:44:00,
2013-03-14 04:49:00,48.5,46.6,30.08,WSW,240,2.4,4.0,93,0.00,OVC,,0.00,0.0,WeatherDisplay:10.37,2013-03-14 11:49:00,
2013-03-14 04:54:00,48.4,46.5,30.08,WSW,240,2.6,3.5,93,0.00,OVC,,0.00,0.0,WeatherDisplay:10.37,2013-03-14 11:54:00,
2013-03-14 04:59:00,48.4,46.5,30.08,WSW,239,2.0,3.5,93,0.00,OVC,,0.00,0.0,WeatherDisplay:10.37,2013-03-14 11:59:00,
2013-03-14 05:04:00,48.5,46.6,30.08,WSW,240,3.2,3.5,93,0.00,OVC,,0.00,0.0,WeatherDisplay:10.37,2013-03-14 12:04:00,
2013-03-14 05:09:00,48.4,46.5,30.08,WSW,240,0.3,3.5,93,0.00,OVC,,0.00,0.0,WeatherDisplay:10.37,2013-03-14 12:09:00,
2013-03-14 05:14:00,48.4,46.5,30.08,WSW,240,2.2,2.3,93,0.00,OVC,,0.00,0.0,WeatherDisplay:10.37,2013-03-14 12:14:00,
2013-03-14 05:19:00,48.4,46.5,30.08,WSW,240,3.1,3.5,93,0.00,OVC,,0.00,0.0,WeatherDisplay:10.37,2013-03-14 12:19:00,
2013-03-14 05:24:00,48.3,46.4,30.08,WSW,240,2.2,4.6,93,0.00,OVC,,0.00,0.0,WeatherDisplay:10.37,2013-03-14 12:24:00,
2013-03-14 05:29:00,48.3,46.4,30.07,WSW,240,0.7,3.5,93,0.00,OVC,,0.00,0.0,WeatherDisplay:10.37,2013-03-14 12:29:00,
2013-03-14 05:34:00,48.2,46.3,30.08,WSW,240,2.1,3.5,93,0.00,OVC,,0.00,0.0,WeatherDisplay:10.37,2013-03-14 12:34:00,
2013-03-14 05:39:00,48.2,46.3,30.08,SW,236,1.0,3.5,93,0.00,OVC,,0.00,0.0,WeatherDisplay:10.37,2013-03-14 12:39:00,
2013-03-14 05:44:00,48.2,46.3,30.08,SW,236,1.5,2.3,93,0.00,OVC,,0.00,0.0,WeatherDisplay:10.37,2013-03-14 12:44:00,
2013-03-14 05:49:00,48.2,46.3,30.08,SW,235,2.7,4.6,93,0.00,OVC,,0.00,0.0,WeatherDisplay:10.37,2013-03-14 12:49:00,
2013-03-14 05:54:00,48.1,46.2,30.08,SW,236,2.5,4.6,93,0.00,OVC,,0.00,0.0,WeatherDisplay:10.37,2013-03-14 12:54:00,
2013-03-14 05:59:00,48.1,46.2,30.08,SW,235,3.1,3.5,93,0.00,OVC,,0.00,0.0,WeatherDisplay:10.37,2013-03-14 12:59:00,
2013-03-14 06:04:00,48.0,46.1,30.08,SW,236,2.4,3.5,93,0.00,OVC,,0.00,0.0,WeatherDisplay:10.37,2013-03-14 13:04:00,
2013-03-14 06:09:00,47.9,46.0,30.08,SW,236,2.9,3.5,93,0.00,OVC,,0.00,0.0,WeatherDisplay:10.37,2013-03-14 13:09:00,
2013-03-14 06:14:00,47.9,46.0,30.08,SW,236,1.7,3.5,93,0.00,OVC,,0.00,0.0,WeatherDisplay:10.37,2013-03-14 13:14:00,
2013-03-14 06:19:00,47.9,46.0,30.08,WSW,238,3.8,4.6,93,0.00,OVC,,0.00,0.0,WeatherDisplay:10.37,2013-03-14 13:19:00,
2013-03-14 06:24:00,47.9,46.0,30.08,WSW,238,3.2,4.6,93,0.00,OVC,,0.00,0.0,WeatherDisplay:10.37,2013-03-14 13:24:00,
2013-03-14 06:29:00,47.9,46.0,30.08,WSW,237,2.4,3.5,93,0.00,OVC,,0.00,0.0,WeatherDisplay:10.37,2013-03-14 13:29:00,
2013-03-14 06:34:00,47.9,46.0,30.08,WSW,238,2.8,3.5,93,0.00,OVC,,0.00,0.0,WeatherDisplay:10.37,2013-03-14 13:34:00,
2013-03-14 06:39:00,47.8,45.9,30.09,WSW,237,2.4,4.0,93,0.00,OVC,,0.00,0.0,WeatherDisplay:10.37,2013-03-14 13:39:00,
2013-03-14 06:44:00,47.8,45.9,30.08,SW,235,2.1,3.5,93,0.00,OVC,,0.00,0.0,WeatherDisplay:10.37,2013-03-14 13:44:00,
2013-03-14 06:49:00,47.7,46.1,30.08,SW,235,1.2,3.5,94,0.00,OVC,,0.00,0.0,WeatherDisplay:10.37,2013-03-14 13:49:00,
2013-03-14 06:54:00,47.7,45.8,30.08,SW,235,2.0,6.0,93,0.00,OVC,,0.00,0.0,WeatherDisplay:10.37,2013-03-14 13:54:00,
2013-03-14 06:59:00,47.7,46.1,30.08,SW,236,2.4,4.0,94,0.00,OVC,,0.00,0.0,WeatherDisplay:10.37,2013-03-14 13:59:00,
2013-03-14 07:04:00,47.7,46.1,30.08,SW,235,2.0,5.0,94,0.00,OVC,,0.00,0.0,WeatherDisplay:10.37,2013-03-14 14:04:00,
2013-03-14 07:09:00,47.7,46.1,30.09,SW,234,2.0,6.0,94,0.00,OVC,,0.00,0.0,WeatherDisplay:10.37,2013-03-14 14:09:00,
2013-03-14 07:14:00,47.7,46.1,30.09,SW,233,2.5,3.5,94,0.00,OVC,,0.00,0.0,WeatherDisplay:10.37,2013-03-14 14:14:00,
2013-03-14 07:19:00,47.7,46.1,30.09,SW,234,0.0,4.0,94,0.00,OVC,,0.00,0.0,WeatherDisplay:10.37,2013-03-14 14:19:00,
2013-03-14 07:24:00,47.7,46.1,30.09,SW,234,2.0,5.0,94,0.00,OVC,,0.00,0.0,WeatherDisplay:10.37,2013-03-14 14:24:00,
2013-03-14 07:29:00,47.8,46.2,30.10,SW,234,0.2,3.5,94,0.00,BKN,,0.00,9.0,WeatherDisplay:10.37,2013-03-14 14:29:00,
2013-03-14 07:34:00,47.8,46.2,30.10,SW,234,0.0,1.1,94,0.00,BKN,,0.00,16.0,WeatherDisplay:10.37,2013-03-14 14:34:00,
2013-03-14 07:39:00,47.9,46.2,30.10,SW,234,0.0,3.0,94,0.00,BKN,,0.00,23.0,WeatherDisplay:10.37,2013-03-14 14:39:00,
2013-03-14 07:44:00,47.9,46.3,30.10,SW,234,3.3,3.5,94,0.00,BKN,,0.00,32.0,WeatherDisplay:10.37,2013-03-14 14:44:00,
2013-03-14 07:49:00,48.0,46.4,30.11,SW,234,1.4,3.5,94,0.00,SCT,,0.00,56.0,WeatherDisplay:10.37,2013-03-14 14:49:00,
2013-03-14 07:54:00,48.2,46.6,30.10,SW,233,0.0,1.1,94,0.00,SCT,,0.00,60.0,WeatherDisplay:10.37,2013-03-14 14:54:00,
2013-03-14 07:59:00,48.3,46.7,30.10,SW,234,0.1,0.0,94,0.00,CLR,,0.00,109.0,WeatherDisplay:10.37,2013-03-14 14:59:00,
2013-03-14 08:04:00,48.6,47.0,30.10,SW,233,1.5,3.5,94,0.00,CLR,,0.00,134.0,WeatherDisplay:10.37,2013-03-14 15:04:00,
2013-03-14 08:09:00,48.9,47.5,30.10,SW,233,0.2,0.0,95,0.00,CLR,,0.00,155.0,WeatherDisplay:10.37,2013-03-14 15:09:00,
2013-03-14 08:15:00,49.2,47.8,30.10,WSW,237,1.0,5.0,95,0.00,CLR,,0.00,169.0,WeatherDisplay:10.37,2013-03-14 15:15:00,
2013-03-14 08:19:00,49.7,48.3,30.11,SW,233,1.0,3.0,95,0.00,CLR,,0.00,178.0,WeatherDisplay:10.37,2013-03-14 15:19:00,
2013-03-14 08:24:00,50.1,48.7,30.11,SW,233,0.6,3.5,95,0.00,CLR,,0.00,207.0,WeatherDisplay:10.37,2013-03-14 15:24:00,
2013-03-14 08:30:00,50.4,48.8,30.11,SW,229,3.0,6.0,94,0.00,CLR,,0.00,216.0,WeatherDisplay:10.37,2013-03-14 15:30:00,
2013-03-14 08:35:00,50.7,49.0,30.11,SW,218,3.0,6.0,94,0.00,CLR,,0.00,162.0,WeatherDisplay:10.37,2013-03-14 15:35:00,
2013-03-14 08:39:00,50.7,48.7,30.12,SSW,207,3.0,8.0,93,0.00,FEW,,0.00,114.0,WeatherDisplay:10.37,2013-03-14 15:39:00,
2013-03-14 08:44:00,50.6,48.7,30.12,SSW,205,6.0,7.0,93,0.00,SCT,,0.00,114.0,WeatherDisplay:10.37,2013-03-14 15:44:00,
2013-03-14 08:49:00,50.5,48.3,30.12,SW,225,3.0,4.6,92,0.00,BKN,,0.00,118.0,WeatherDisplay:10.37,2013-03-14 15:49:00,
2013-03-14 08:55:00,50.5,48.3,30.12,SW,222,5.0,7.0,92,0.00,BKN,,0.00,141.0,WeatherDisplay:10.37,2013-03-14 15:55:00,
2013-03-14 08:59:00,50.5,48.3,30.13,SW,218,5.0,7.0,92,0.00,SCT,,0.00,223.0,WeatherDisplay:10.37,2013-03-14 15:59:00,
2013-03-14 09:04:00,50.6,48.7,30.13,SW,217,3.0,6.0,93,0.00,FEW,,0.00,269.0,WeatherDisplay:10.37,2013-03-14 16:04:00,
2013-03-14 09:10:00,50.9,48.9,30.12,SW,220,3.5,4.6,93,0.00,CLR,,0.00,338.0,WeatherDisplay:10.37,2013-03-14 16:10:00,
2013-03-14 09:15:00,51.4,49.4,30.12,SW,220,1.4,3.5,93,0.00,CLR,,0.00,274.0,WeatherDisplay:10.37,2013-03-14 16:15:00,
2013-03-14 09:20:00,51.8,49.6,30.13,SW,222,3.0,5.0,92,0.00,FEW,,0.00,255.0,WeatherDisplay:10.37,2013-03-14 16:20:00,
2013-03-14 09:25:00,52.2,49.9,30.14,SW,231,5.2,10.4,92,0.00,FEW,,0.00,360.0,WeatherDisplay:10.37,2013-03-14 16:25:00,
2013-03-14 09:30:00,52.6,49.8,30.14,SSW,204,4.0,5.8,90,0.00,CLR,,0.00,332.0,WeatherDisplay:10.37,2013-03-14 16:30:00,
2013-03-14 09:35:00,52.9,50.0,30.14,SSW,204,1.0,7.0,90,0.00,CLR,,0.00,373.0,WeatherDisplay:10.37,2013-03-14 16:35:00,
2013-03-14 09:40:00,53.5,50.3,30.14,SSW,198,4.0,6.9,89,0.00,CLR,,0.00,450.0,WeatherDisplay:10.37,2013-03-14 16:40:00,
2013-03-14 09:45:00,54.0,50.5,30.14,SSW,199,2.1,3.5,88,0.00,CLR,,0.00,352.0,WeatherDisplay:10.37,2013-03-14 16:45:00,
2013-03-14 09:50:00,54.3,50.2,30.14,SW,220,5.8,9.2,86,0.00,CLR,,0.00,341.0,WeatherDisplay:10.37,2013-03-14 16:50:00,
2013-03-14 09:55:00,54.4,50.3,30.15,SSW,194,3.0,6.9,86,0.00,FEW,,0.00,345.0,WeatherDisplay:10.37,2013-03-14 16:55:00,
2013-03-14 10:00:00,54.5,50.1,30.15,South,187,5.3,9.2,85,0.00,FEW,,0.00,390.0,WeatherDisplay:10.37,2013-03-14 17:00:00,
2013-03-14 10:05:00,54.6,50.2,30.15,SSW,192,5.0,8.0,85,0.00,FEW,,0.00,415.0,WeatherDisplay:10.37,2013-03-14 17:05:00,
2013-03-14 10:10:00,54.9,49.8,30.15,SW,224,7.8,10.4,83,0.00,FEW,,0.00,367.0,WeatherDisplay:10.37,2013-03-14 17:10:00,
2013-03-14 10:15:00,54.7,49.6,30.15,SW,215,6.0,11.5,83,0.00,FEW,,0.00,406.0,WeatherDisplay:10.37,2013-03-14 17:15:00,
2013-03-14 10:20:00,54.6,49.9,30.15,South,177,5.7,11.5,84,0.00,SCT,,0.00,352.0,WeatherDisplay:10.37,2013-03-14 17:20:00,
2013-03-14 10:25:00,54.6,49.9,30.15,SW,218,3.5,4.6,84,0.00,SCT,,0.00,369.0,WeatherDisplay:10.37,2013-03-14 17:25:00,
2013-03-14 10:30:00,54.8,50.1,30.14,SW,219,1.0,4.6,84,0.00,SCT,,0.00,422.0,WeatherDisplay:10.37,2013-03-14 17:30:00,
2013-03-14 10:35:00,55.3,50.2,30.14,SSW,200,6.6,10.0,83,0.00,FEW,,0.00,471.0,WeatherDisplay:10.37,2013-03-14 17:35:00,
2013-03-14 10:40:00,55.4,50.0,30.14,SW,221,3.6,5.8,82,0.00,FEW,,0.00,499.0,WeatherDisplay:10.37,2013-03-14 17:40:00,
2013-03-14 10:45:00,55.7,50.3,30.15,SW,229,5.8,8.1,82,0.00,FEW,,0.00,469.0,WeatherDisplay:10.37,2013-03-14 17:45:00,
2013-03-14 10:50:00,56.0,50.3,30.15,SSW,207,5.9,10.4,81,0.00,FEW,,0.00,529.0,WeatherDisplay:10.37,2013-03-14 17:50:00,
2013-03-14 10:55:00,56.1,50.3,30.15,SW,230,2.9,9.2,81,0.00,FEW,,0.00,499.0,WeatherDisplay:10.37,2013-03-14 17:55:00,
2013-03-14 11:00:00,56.5,50.4,30.15,SW,227,4.7,9.2,80,0.00,FEW,,0.00,469.0,WeatherDisplay:10.37,2013-03-14 18:00:00,
2013-03-14 11:05:00,56.9,50.8,30.15,SSW,206,5.3,10.4,80,0.00,SCT,,0.00,533.0,WeatherDisplay:10.37,2013-03-14 18:05:00,
2013-03-14 11:10:00,56.9,50.8,30.15,SSW,202,5.1,10.4,80,0.00,SCT,,0.00,508.0,WeatherDisplay:10.37,2013-03-14 18:10:00,
2013-03-14 11:15:00,57.3,51.2,30.15,SW,235,3.3,4.6,80,0.00,SCT,,0.00,538.0,WeatherDisplay:10.37,2013-03-14 18:15:00,
2013-03-14 11:20:00,57.8,51.3,30.15,SW,233,3.3,6.9,79,0.00,FEW,,0.00,573.0,WeatherDisplay:10.37,2013-03-14 18:20:00,
2013-03-14 11:25:00,58.3,51.5,30.15,WSW,239,4.3,5.0,78,0.00,FEW,,0.00,561.0,WeatherDisplay:10.37,2013-03-14 18:25:00,
2013-03-14 11:30:00,58.7,51.5,30.15,SW,220,4.5,8.1,77,0.00,FEW,,0.00,534.0,WeatherDisplay:10.37,2013-03-14 18:30:00,
2013-03-14 11:35:00,58.9,51.3,30.16,SW,223,5.4,10.4,76,0.00,FEW,,0.00,540.0,WeatherDisplay:10.37,2013-03-14 18:35:00,
2013-03-14 11:40:00,59.1,51.2,30.16,SSW,196,4.8,6.9,75,0.00,SCT,,0.00,338.0,WeatherDisplay:10.37,2013-03-14 18:40:00,
2013-03-14 11:45:00,59.1,51.2,30.16,SW,235,6.8,11.5,75,0.00,SCT,,0.00,422.0,WeatherDisplay:10.37,2013-03-14 18:45:00,
2013-03-14 11:50:00,59.0,51.1,30.16,WSW,239,5.9,9.2,75,0.00,SCT,,0.00,527.0,WeatherDisplay:10.37,2013-03-14 18:50:00,
2013-03-14 11:56:00,58.9,51.0,30.16,WSW,255,3.2,4.6,75,0.00,SCT,,0.00,476.0,WeatherDisplay:10.37,2013-03-14 18:56:00,
2013-03-14 12:01:00,59.0,51.1,30.16,WSW,256,4.4,6.9,75,0.00,SCT,,0.00,631.0,WeatherDisplay:10.37,2013-03-14 19:01:00,
2013-03-14 12:06:00,59.0,51.4,30.16,SW,230,0.1,1.1,76,0.00,SCT,,0.00,464.0,WeatherDisplay:10.37,2013-03-14 19:06:00,
2013-03-14 12:11:00,59.5,51.2,30.16,SW,230,1.1,2.3,74,0.00,SCT,,0.00,413.0,WeatherDisplay:10.37,2013-03-14 19:11:00,
2013-03-14 12:16:00,60.2,51.5,30.15,SW,222,2.1,3.5,73,0.00,SCT,,0.00,592.0,WeatherDisplay:10.37,2013-03-14 19:16:00,
2013-03-14 12:21:00,60.5,51.4,30.15,SW,222,0.1,3.5,72,0.00,SCT,,0.00,650.0,WeatherDisplay:10.37,2013-03-14 19:21:00,
2013-03-14 12:26:00,60.7,51.2,30.15,SW,233,4.9,8.1,71,0.00,SCT,,0.00,580.0,WeatherDisplay:10.37,2013-03-14 19:26:00,
2013-03-14 12:31:00,60.7,50.9,30.15,West,274,2.6,5.0,70,0.00,FEW,,0.00,624.0,WeatherDisplay:10.37,2013-03-14 19:31:00,
2013-03-14 12:36:00,60.6,51.5,30.15,SSW,213,5.9,7.0,72,0.00,FEW,,0.00,645.0,WeatherDisplay:10.37,2013-03-14 19:36:00,
2013-03-14 12:41:00,60.8,51.3,30.15,SSW,204,5.1,6.9,71,0.00,FEW,,0.00,538.0,WeatherDisplay:10.37,2013-03-14 19:41:00,
2013-03-14 12:46:00,61.0,51.5,30.14,SSW,196,3.8,5.8,71,0.00,SCT,,0.00,529.0,WeatherDisplay:10.37,2013-03-14 19:46:00,
2013-03-14 12:51:00,61.1,51.6,30.14,SSW,196,0.7,1.1,71,0.00,SCT,,0.00,496.0,WeatherDisplay:10.37,2013-03-14 19:51:00,
2013-03-14 12:57:00,61.5,51.6,30.14,SSW,196,0.2,1.1,70,0.00,SCT,,0.00,506.0,WeatherDisplay:10.37,2013-03-14 19:57:00,
2013-03-14 13:02:00,61.8,51.5,30.14,North,358,0.1,3.5,69,0.00,SCT,,0.00,443.0,WeatherDisplay:10.37,2013-03-14 20:02:00,
2013-03-14 13:07:00,61.9,51.6,30.15,North,358,0.0,0.0,69,0.00,SCT,,0.00,427.0,WeatherDisplay:10.37,2013-03-14 20:07:00,
2013-03-14 13:12:00,61.4,50.7,30.15,SW,215,4.7,10.4,68,0.00,SCT,,0.00,550.0,WeatherDisplay:10.37,2013-03-14 20:12:00,
2013-03-14 13:17:00,60.0,50.2,30.15,SSW,203,5.6,9.2,70,0.00,SCT,,0.00,631.0,WeatherDisplay:10.37,2013-03-14 20:17:00,
2013-03-14 13:22:00,58.9,50.3,30.15,SW,221,5.5,9.2,73,0.00,SCT,,0.00,679.0,WeatherDisplay:10.37,2013-03-14 20:22:00,
2013-03-14 13:27:00,58.7,50.4,30.13,SW,228,0.7,5.0,74,0.00,FEW,,0.00,717.0,WeatherDisplay:10.37,2013-03-14 20:27:00,
2013-03-14 13:32:00,59.2,50.9,30.13,SW,219,5.3,7.0,74,0.00,CLR,,0.00,830.0,WeatherDisplay:10.37,2013-03-14 20:32:00,
2013-03-14 13:37:00,60.0,50.9,30.13,WSW,244,4.3,11.5,72,0.00,CLR,,0.00,916.0,WeatherDisplay:10.37,2013-03-14 20:37:00,
2013-03-14 13:42:00,60.6,51.1,30.13,SSW,192,6.8,11.5,71,0.00,CLR,,0.00,802.0,WeatherDisplay:10.37,2013-03-14 20:42:00,
2013-03-14 13:47:00,61.3,51.4,30.13,WSW,243,1.7,9.2,70,0.00,CLR,,0.00,703.0,WeatherDisplay:10.37,2013-03-14 20:47:00,
2013-03-14 13:52:00,61.8,51.5,30.13,WSW,242,0.8,3.5,69,0.00,SCT,,0.00,404.0,WeatherDisplay:10.37,2013-03-14 20:52:00,
2013-03-14 13:57:00,62.2,51.9,30.13,WSW,242,1.0,3.5,69,0.00,SCT,,0.00,707.0,WeatherDisplay:10.37,2013-03-14 20:57:00,
2013-03-14 14:02:00,62.7,52.0,30.13,SW,233,7.0,7.0,68,0.00,SCT,,0.00,413.0,WeatherDisplay:10.37,2013-03-14 21:02:00,
2013-03-14 14:07:00,63.3,52.2,30.13,SW,226,3.6,6.9,67,0.00,SCT,,0.00,383.0,WeatherDisplay:10.37,2013-03-14 21:07:00,
2013-03-14 14:12:00,63.8,51.4,30.13,SW,235,1.2,3.5,64,0.00,SCT,,0.00,424.0,WeatherDisplay:10.37,2013-03-14 21:12:00,
2013-03-14 14:18:00,63.7,50.9,30.13,NNE,23,1.5,3.5,63,0.00,SCT,,0.00,404.0,WeatherDisplay:10.37,2013-03-14 21:18:00,
2013-03-14 14:23:00,63.8,50.5,30.13,WNW,296,2.5,4.6,62,0.00,SCT,,0.00,645.0,WeatherDisplay:10.37,2013-03-14 21:23:00,
2013-03-14 14:28:00,63.9,51.5,30.13,WSW,239,1.0,3.5,64,0.00,SCT,,0.00,557.0,WeatherDisplay:10.37,2013-03-14 21:28:00,
2013-03-14 14:33:00,64.2,51.3,30.13,SW,229,5.1,6.9,63,0.00,FEW,,0.00,420.0,WeatherDisplay:10.37,2013-03-14 21:33:00,
2013-03-14 14:38:00,64.2,50.9,30.13,SW,221,2.4,6.9,62,0.00,SCT,,0.00,436.0,WeatherDisplay:10.37,2013-03-14 21:38:00,
2013-03-14 14:43:00,64.3,51.0,30.12,SW,220,4.6,6.9,62,0.00,SCT,,0.00,357.0,WeatherDisplay:10.37,2013-03-14 21:43:00,
2013-03-14 14:48:00,63.9,50.2,30.12,SW,227,6.9,11.5,61,0.00,SCT,,0.00,373.0,WeatherDisplay:10.37,2013-03-14 21:48:00,
2013-03-14 14:53:00,62.9,50.1,30.13,South,173,4.9,11.5,63,0.00,SCT,,0.00,410.0,WeatherDisplay:10.37,2013-03-14 21:53:00,
2013-03-14 14:58:00,62.2,50.3,30.12,South,183,4.0,5.8,65,0.00,SCT,,0.00,694.0,WeatherDisplay:10.37,2013-03-14 21:58:00,
2013-03-14 15:03:00,62.5,50.2,30.12,SSW,206,0.5,3.5,64,0.00,CLR,,0.00,448.0,WeatherDisplay:10.37,2013-03-14 22:03:00,
2013-03-14 15:08:00,63.1,50.3,30.12,South,179,2.9,5.8,63,0.00,FEW,,0.00,366.0,WeatherDisplay:10.37,2013-03-14 22:08:00,
2013-03-14 15:13:00,63.4,50.1,30.12,SW,219,6.1,10.4,62,0.00,SCT,,0.00,485.0,WeatherDisplay:10.37,2013-03-14 22:13:00,
2013-03-14 15:18:00,63.5,49.8,30.12,SSW,195,4.3,9.2,61,0.00,SCT,,0.00,563.0,WeatherDisplay:10.37,2013-03-14 22:18:00,
2013-03-14 15:23:00,63.7,50.4,30.12,SW,223,3.3,5.0,62,0.00,SCT,,0.00,462.0,WeatherDisplay:10.37,2013-03-14 22:23:00,
2013-03-14 15:28:00,64.3,49.7,30.13,WSW,252,9.6,11.5,59,0.00,SCT,,0.00,276.0,WeatherDisplay:10.37,2013-03-14 22:28:00,
2013-03-14 15:34:00,62.9,49.7,30.12,WSW,243,9.5,16.0,62,0.00,SCT,,0.00,315.0,WeatherDisplay:10.37,2013-03-14 22:34:00,
2013-03-14 15:39:00,61.3,49.4,30.13,SSW,198,9.9,12.7,65,0.00,BKN,,0.00,315.0,WeatherDisplay:10.37,2013-03-14 22:39:00,
2013-03-14 15:44:00,60.2,48.8,30.13,SW,236,8.2,11.5,66,0.00,SCT,,0.00,285.0,WeatherDisplay:10.37,2013-03-14 22:44:00,
2013-03-14 15:49:00,59.4,48.4,30.12,SW,234,5.0,6.9,67,0.00,SCT,,0.00,290.0,WeatherDisplay:10.37,2013-03-14 22:49:00,
2013-03-14 15:54:00,59.3,48.3,30.12,SW,223,3.8,6.9,67,0.00,SCT,,0.00,287.0,WeatherDisplay:10.37,2013-03-14 22:54:00,
2013-03-14 15:59:00,59.5,48.1,30.12,WSW,242,2.6,5.8,66,0.00,SCT,,0.00,373.0,WeatherDisplay:10.37,2013-03-14 22:59:00,
2013-03-14 16:04:00,59.6,48.2,30.12,SW,233,5.3,11.5,66,0.00,SCT,,0.00,265.0,WeatherDisplay:10.37,2013-03-14 23:04:00,
2013-03-14 16:09:00,59.1,48.1,30.12,SSW,212,12.7,17.3,67,0.00,SCT,,0.00,206.0,WeatherDisplay:10.37,2013-03-14 23:09:00,
2013-03-14 16:14:00,58.7,48.6,30.12,SSW,197,6.1,12.7,69,0.00,BKN,,0.00,236.0,WeatherDisplay:10.37,2013-03-14 23:14:00,
2013-03-14 16:19:00,58.7,48.6,30.12,SSW,210,4.9,6.0,69,0.00,BKN,,0.00,255.0,WeatherDisplay:10.37,2013-03-14 23:19:00,
2013-03-14 16:24:00,58.7,48.6,30.12,SW,235,11.2,15.0,69,0.00,SCT,,0.00,250.0,WeatherDisplay:10.37,2013-03-14 23:24:00,
2013-03-14 16:29:00,58.5,48.4,30.12,SW,229,10.2,15.0,69,0.00,SCT,,0.00,250.0,WeatherDisplay:10.37,2013-03-14 23:29:00,
2013-03-14 16:34:00,58.3,48.9,30.12,WSW,242,9.3,13.8,71,0.00,SCT,,0.00,234.0,WeatherDisplay:10.37,2013-03-14 23:34:00,
2013-03-14 16:39:00,58.0,48.6,30.13,SW,215,7.6,11.5,71,0.00,SCT,,0.00,202.0,WeatherDisplay:10.37,2013-03-14 23:39:00,
2013-03-14 16:44:00,57.7,48.7,30.13,WSW,239,5.2,10.4,72,0.00,SCT,,0.00,181.0,WeatherDisplay:10.37,2013-03-14 23:44:00,
2013-03-14 16:49:00,57.5,48.9,30.12,West,261,6.9,11.5,73,0.00,BKN,,0.00,185.0,WeatherDisplay:10.37,2013-03-14 23:49:00,
2013-03-14 16:54:00,57.5,48.9,30.12,SW,229,8.7,12.7,73,0.00,SCT,,0.00,190.0,WeatherDisplay:10.37,2013-03-14 23:54:00,
2013-03-14 16:59:00,57.4,48.8,30.12,SW,225,5.5,10.4,73,0.00,SCT,,0.00,167.0,WeatherDisplay:10.37,2013-03-14 23:59:00,
2013-03-14 17:04:00,57.3,49.1,30.12,SW,225,0.7,3.5,74,0.00,SCT,,0.00,139.0,WeatherDisplay:10.37,2013-03-15 00:04:00,
2013-03-14 17:09:00,57.5,49.3,30.12,SW,235,2.3,5.0,74,0.00,BKN,,0.00,125.0,WeatherDisplay:10.37,2013-03-15 00:09:00,
2013-03-14 17:14:00,57.5,48.9,30.12,SW,224,7.7,10.4,73,0.00,BKN,,0.00,113.0,WeatherDisplay:10.37,2013-03-15 00:14:00,
2013-03-14 17:19:00,57.5,48.9,30.11,SW,223,2.3,5.8,73,0.00,BKN,,0.00,102.0,WeatherDisplay:10.37,2013-03-15 00:19:00,
2013-03-14 17:24:00,57.5,48.5,30.10,NNW,340,0.0,1.1,72,0.00,BKN,,0.00,98.0,WeatherDisplay:10.37,2013-03-15 00:24:00,
2013-03-14 17:29:00,57.5,48.9,30.10,North,354,0.0,0.0,73,0.00,BKN,,0.00,88.0,WeatherDisplay:10.37,2013-03-15 00:29:00,
2013-03-14 17:34:00,57.5,48.5,30.11,North,353,1.7,3.5,72,0.00,BKN,,0.00,74.0,WeatherDisplay:10.37,2013-03-15 00:34:00,
2013-03-14 17:39:00,57.5,48.5,30.10,NW,304,0.1,2.3,72,0.00,BKN,,0.00,67.0,WeatherDisplay:10.37,2013-03-15 00:39:00,
2013-03-14 17:44:00,57.7,48.7,30.10,WNW,302,1.0,2.0,72,0.00,BKN,,0.00,62.0,WeatherDisplay:10.37,2013-03-15 00:44:00,
2013-03-14 17:49:00,58.0,49.4,30.11,SSW,213,0.9,4.0,73,0.00,BKN,,0.00,60.0,WeatherDisplay:10.37,2013-03-15 00:49:00,
2013-03-14 17:54:00,58.3,50.0,30.10,SSW,212,1.5,3.5,74,0.00,BKN,,0.00,67.0,WeatherDisplay:10.37,2013-03-15 00:54:00,
2013-03-14 17:59:00,58.4,49.4,30.10,SW,216,0.8,3.5,72,0.00,BKN,,0.00,63.0,WeatherDisplay:10.37,2013-03-15 00:59:00,
2013-03-14 18:04:00,58.6,50.0,30.10,SW,216,1.1,4.0,73,0.00,BKN,,0.00,65.0,WeatherDisplay:10.37,2013-03-15 01:04:00,
2013-03-14 18:09:00,58.7,49.3,30.11,SSW,193,5.0,8.0,71,0.00,BKN,,0.00,79.0,WeatherDisplay:10.37,2013-03-15 01:09:00,
2013-03-14 18:14:00,58.6,49.6,30.10,SSW,200,5.0,10.0,72,0.00,SCT,,0.00,79.0,WeatherDisplay:10.37,2013-03-15 01:14:00,
2013-03-14 18:19:00,58.5,49.1,30.09,SW,217,1.3,3.5,71,0.00,SCT,,0.00,72.0,WeatherDisplay:10.37,2013-03-15 01:19:00,
2013-03-14 18:24:00,58.6,49.2,30.09,SSW,211,1.2,4.6,71,0.00,FEW,,0.00,72.0,WeatherDisplay:10.37,2013-03-15 01:24:00,
2013-03-14 18:30:00,58.6,48.8,30.10,South,189,4.4,5.0,70,0.00,CLR,,0.00,63.0,WeatherDisplay:10.37,2013-03-15 01:30:00,
2013-03-14 18:35:00,58.3,49.0,30.09,SSW,203,6.0,12.0,71,0.00,CLR,,0.00,54.0,WeatherDisplay:10.37,2013-03-15 01:35:00,
2013-03-14 18:40:00,57.7,49.1,30.09,SSW,212,3.7,5.8,73,0.00,CLR,,0.00,40.0,WeatherDisplay:10.37,2013-03-15 01:40:00,
2013-03-14 18:45:00,57.3,48.7,30.09,SW,222,3.0,7.0,73,0.00,CLR,,0.00,33.0,WeatherDisplay:10.37,2013-03-15 01:45:00,
2013-03-14 18:50:00,56.9,48.7,30.10,SSW,201,5.4,8.1,74,0.00,CLR,,0.00,25.0,WeatherDisplay:10.37,2013-03-15 01:50:00,
2013-03-14 18:55:00,56.4,48.6,30.09,SW,227,7.6,11.5,75,0.00,CLR,,0.00,18.0,WeatherDisplay:10.37,2013-03-15 01:55:00,
2013-03-14 19:00:00,56.0,48.5,30.10,SW,228,7.1,11.5,76,0.00,CLR,,0.00,12.0,WeatherDisplay:10.37,2013-03-15 02:00:00,
2013-03-14 19:05:00,55.8,48.7,30.10,SW,229,6.2,10.4,77,0.00,OVC,,0.00,11.0,WeatherDisplay:10.37,2013-03-15 02:05:00,
2013-03-14 19:10:00,55.7,48.6,30.10,SW,230,3.6,5.8,77,0.00,OVC,,0.00,7.0,WeatherDisplay:10.37,2013-03-15 02:10:00,
2013-03-14 19:15:00,55.5,48.4,30.10,West,259,7.6,10.4,77,0.00,OVC,,0.00,0.0,WeatherDisplay:10.37,2013-03-15 02:15:00,
2013-03-14 19:20:00,55.3,48.2,30.09,WSW,258,1.5,3.5,77,0.00,OVC,,0.00,0.0,WeatherDisplay:10.37,2013-03-15 02:20:00,
2013-03-14 19:25:00,55.3,48.2,30.10,SW,229,3.0,4.6,77,0.00,OVC,,0.00,0.0,WeatherDisplay:10.37,2013-03-15 02:25:00,
2013-03-14 19:30:00,55.1,48.0,30.10,SW,217,9.1,11.5,77,0.00,OVC,,0.00,0.0,WeatherDisplay:10.37,2013-03-15 02:30:00,
2013-03-14 19:35:00,54.7,48.0,30.10,SW,223,8.1,11.5,78,0.00,OVC,,0.00,0.0,WeatherDisplay:10.37,2013-03-15 02:35:00,
2013-03-14 19:40:00,54.4,48.0,30.10,SW,215,3.9,5.8,79,0.00,OVC,,0.00,0.0,WeatherDisplay:10.37,2013-03-15 02:40:00,
2013-03-14 19:45:00,54.2,47.8,30.09,WSW,239,4.2,7.0,79,0.00,OVC,,0.00,0.0,WeatherDisplay:10.37,2013-03-15 02:45:00,
2013-03-14 19:50:00,54.0,48.0,30.09,SW,226,9.5,12.7,80,0.00,OVC,,0.00,0.0,WeatherDisplay:10.37,2013-03-15 02:50:00,
2013-03-14 19:55:00,54.0,48.0,30.10,West,268,3.1,4.6,80,0.00,OVC,,0.00,0.0,WeatherDisplay:10.37,2013-03-15 02:55:00,
2013-03-14 20:00:00,54.1,47.7,30.10,WSW,256,7.3,11.5,79,0.00,OVC,,0.00,0.0,WeatherDisplay:10.37,2013-03-15 03:00:00,
2013-03-14 20:05:00,54.1,47.7,30.10,SW,229,4.8,5.8,79,0.00,OVC,,0.00,0.0,WeatherDisplay:10.37,2013-03-15 03:05:00,
2013-03-14 20:10:00,54.1,47.7,30.10,SW,223,3.1,5.8,79,0.00,OVC,,0.00,0.0,WeatherDisplay:10.37,2013-03-15 03:10:00,
2013-03-14 20:15:00,54.0,47.6,30.10,SSW,206,3.1,9.2,79,0.00,OVC,,0.00,0.0,WeatherDisplay:10.37,2013-03-15 03:15:00,
2013-03-14 20:20:00,53.8,47.8,30.09,SW,224,2.7,4.6,80,0.00,OVC,,0.00,0.0,WeatherDisplay:10.37,2013-03-15 03:20:00,
2013-03-14 20:25:00,53.7,47.7,30.09,SW,224,0.3,3.5,80,0.00,OVC,,0.00,0.0,WeatherDisplay:10.37,2013-03-15 03:25:00,
2013-03-14 20:30:00,53.7,47.7,30.09,SW,231,2.8,4.6,80,0.00,OVC,,0.00,0.0,WeatherDisplay:10.37,2013-03-15 03:30:00,
2013-03-14 20:35:00,53.8,47.8,30.10,SW,232,5.8,10.0,80,0.00,OVC,,0.00,0.0,WeatherDisplay:10.37,2013-03-15 03:35:00,
2013-03-14 20:40:00,53.9,47.9,30.11,SW,228,7.7,11.5,80,0.00,OVC,,0.00,0.0,WeatherDisplay:10.37,2013-03-15 03:40:00,
2013-03-14 20:45:00,53.5,47.8,30.11,WSW,240,5.3,13.8,81,0.00,OVC,,0.00,0.0,WeatherDisplay:10.37,2013-03-15 03:45:00,
2013-03-14 20:50:00,53.0,48.0,30.12,WSW,256,7.8,11.5,83,0.00,OVC,,0.00,0.0,WeatherDisplay:10.37,2013-03-15 03:50:00,
2013-03-14 20:55:00,52.6,47.9,30.12,WSW,237,7.3,13.0,84,0.00,OVC,,0.00,0.0,WeatherDisplay:10.37,2013-03-15 03:55:00,
2013-03-14 21:00:00,52.4,47.7,30.11,WSW,258,6.1,10.4,84,0.00,OVC,,0.00,0.0,WeatherDisplay:10.37,2013-03-15 04:00:00,
2013-03-14 21:05:00,52.2,47.8,30.11,WSW,237,2.3,10.4,85,0.00,OVC,,0.00,0.0,WeatherDisplay:10.37,2013-03-15 04:05:00,
2013-03-14 21:10:00,52.2,47.8,30.11,WSW,246,9.3,16.0,85,0.00,OVC,,0.00,0.0,WeatherDisplay:10.37,2013-03-15 04:10:00,
2013-03-14 21:15:00,52.1,47.7,30.11,WSW,246,7.2,10.4,85,0.00,OVC,,0.00,0.0,WeatherDisplay:10.37,2013-03-15 04:15:00,
2013-03-14 21:20:00,51.9,47.5,30.10,WSW,248,4.2,13.8,85,0.00,OVC,,0.00,0.0,WeatherDisplay:10.37,2013-03-15 04:20:00,
2013-03-14 21:25:00,52.0,47.6,30.11,SW,231,5.0,10.4,85,0.00,OVC,,0.00,0.0,WeatherDisplay:10.37,2013-03-15 04:25:00,
2013-03-14 21:30:00,52.1,48.0,30.11,SSW,212,3.9,6.9,86,0.00,OVC,,0.00,0.0,WeatherDisplay:10.37,2013-03-15 04:30:00,
2013-03-14 21:35:00,52.2,48.1,30.11,SW,228,5.3,10.4,86,0.00,OVC,,0.00,0.0,WeatherDisplay:10.37,2013-03-15 04:35:00,
2013-03-14 21:40:00,52.2,47.8,30.11,SW,236,0.9,5.0,85,0.00,OVC,,0.00,0.0,WeatherDisplay:10.37,2013-03-15 04:40:00,
2013-03-14 21:45:00,52.1,47.7,30.10,WSW,243,1.1,3.5,85,0.00,OVC,,0.00,0.0,WeatherDisplay:10.37,2013-03-15 04:45:00,
2013-03-14 21:50:00,52.0,47.6,30.11,WSW,243,1.8,3.5,85,0.00,OVC,,0.00,0.0,WeatherDisplay:10.37,2013-03-15 04:50:00,
2013-03-14 21:55:00,52.0,47.6,30.10,WSW,243,0.6,2.3,85,0.00,OVC,,0.00,0.0,WeatherDisplay:10.37,2013-03-15 04:55:00,
2013-03-14 22:00:00,51.9,47.5,30.10,WSW,243,0.0,0.0,85,0.00,OVC,,0.00,0.0,WeatherDisplay:10.37,2013-03-15 05:00:00,
2013-03-14 22:05:00,51.9,47.2,30.11,SE,142,4.1,6.0,84,0.00,OVC,,0.00,0.0,WeatherDisplay:10.37,2013-03-15 05:05:00,
2013-03-14 22:10:00,51.9,47.2,30.11,SE,129,4.0,4.6,84,0.00,OVC,,0.00,0.0,WeatherDisplay:10.37,2013-03-15 05:10:00,
2013-03-14 22:15:00,52.0,47.3,30.11,SE,129,0.0,0.0,84,0.00,OVC,,0.00,0.0,WeatherDisplay:10.37,2013-03-15 05:15:00,
2013-03-14 22:20:00,52.0,47.0,30.11,SE,129,0.3,3.5,83,0.00,OVC,,0.00,0.0,WeatherDisplay:10.37,2013-03-15 05:20:00,
2013-03-14 22:25:00,52.0,47.0,30.11,SW,231,3.8,6.9,83,0.00,OVC,,0.00,0.0,WeatherDisplay:10.37,2013-03-15 05:25:00,
2013-03-14 22:30:00,51.9,47.2,30.12,SW,231,1.7,2.3,84,0.00,OVC,,0.00,0.0,WeatherDisplay:10.37,2013-03-15 05:30:00,
2013-03-14 22:35:00,51.9,47.2,30.12,SW,233,3.3,4.6,84,0.00,OVC,,0.00,0.0,WeatherDisplay:10.37,2013-03-15 05:35:00,
2013-03-14 22:40:00,51.8,47.4,30.12,SW,233,1.7,3.0,85,0.00,OVC,,0.00,0.0,WeatherDisplay:10.37,2013-03-15 05:40:00,
2013-03-14 22:45:00,51.7,47.3,30.12,SW,224,6.5,11.5,85,0.00,OVC,,0.00,0.0,WeatherDisplay:10.37,2013-03-15 05:45:00,
2013-03-14 22:50:00,51.7,47.3,30.12,WSW,237,5.3,6.9,85,0.00,OVC,,0.00,0.0,WeatherDisplay:10.37,2013-03-15 05:50:00,
2013-03-14 22:55:00,51.8,47.4,30.12,West,273,7.1,11.0,85,0.00,OVC,,0.00,0.0,WeatherDisplay:10.37,2013-03-15 05:55:00,
2013-03-14 23:00:00,51.7,47.3,30.12,West,275,3.4,6.9,85,0.00,OVC,,0.00,0.0,WeatherDisplay:10.37,2013-03-15 06:00:00,
2013-03-14 23:05:00,51.7,47.3,30.12,SW,227,5.4,6.9,85,0.00,OVC,,0.00,0.0,WeatherDisplay:10.37,2013-03-15 06:05:00,
2013-03-14 23:10:00,51.5,47.1,30.12,SW,225,3.7,3.7,85,0.00,OVC,,0.00,0.0,WeatherDisplay:10.37,2013-03-15 06:10:00,
2013-03-14 23:15:00,51.4,47.4,30.11,WSW,239,6.3,8.1,86,0.00,OVC,,0.00,0.0,WeatherDisplay:10.37,2013-03-15 06:15:00,
2013-03-14 23:20:00,51.3,47.3,30.11,SW,235,2.4,5.8,86,0.00,OVC,,0.00,0.0,WeatherDisplay:10.37,2013-03-15 06:20:00,
2013-03-14 23:25:00,51.2,47.2,30.12,SW,225,3.1,6.0,86,0.00,OVC,,0.00,0.0,WeatherDisplay:10.37,2013-03-15 06:25:00,
2013-03-14 23:30:00,51.0,47.3,30.11,SW,220,5.4,5.4,87,0.00,OVC,,0.00,0.0,WeatherDisplay:10.37,2013-03-15 06:30:00,
2013-03-14 23:35:00,50.9,47.2,30.11,WSW,246,4.3,11.5,87,0.00,OVC,,0.00,0.0,WeatherDisplay:10.37,2013-03-15 06:35:00,
2013-03-14 23:40:00,50.8,47.1,30.11,WSW,246,1.7,3.5,87,0.00,OVC,,0.00,0.0,WeatherDisplay:10.37,2013-03-15 06:40:00,
2013-03-14 23:45:00,50.7,47.0,30.11,WSW,244,3.1,4.6,87,0.00,OVC,,0.00,0.0,WeatherDisplay:10.37,2013-03-15 06:45:00,
2013-03-14 23:50:00,50.6,46.9,30.11,WSW,239,2.9,3.5,87,0.00,OVC,,0.00,0.0,WeatherDisplay:10.37,2013-03-15 06:50:00,
2013-03-14 23:55:00,50.6,46.9,30.11,WSW,237,3.6,4.6,87,0.00,OVC,,0.00,0.0,WeatherDisplay:10.37,2013-03-15 06:55:00,